createdAt,value
2022-08-17T00:00:42.789Z,100887.13
2022-08-17T00:03:15.128Z,100878.78
2022-08-17T00:05:48.092Z,100879.63
2022-08-17T00:08:19.064Z,100883.63
2022-08-17T00:10:48.871Z,100880.47
2022-08-17T00:13:20.481Z,100879.31
2022-08-17T00:15:48.935Z,100879.78
2022-08-17T00:18:58.328Z,100871.91
2022-08-17T00:21:10.420Z,100867.75
2022-08-17T00:23:44.242Z,100863.06
2022-08-17T00:26:34.590Z,100853.19
2022-08-17T00:29:06.793Z,100851.84
2022-08-17T00:31:35.684Z,100847.31
2022-08-17T00:34:04.461Z,100844.38
2022-08-17T00:36:32.539Z,100850.75
2022-08-17T00:39:00.598Z,100851.41
2022-08-17T00:41:32.582Z,100850.25
2022-08-17T00:44:03.962Z,100845.25
2022-08-17T00:46:35.986Z,100845.44
2022-08-17T00:49:05.863Z,100849.13
2022-08-17T00:51:38.856Z,100845.47
2022-08-17T00:54:12.826Z,100847.13
2022-08-17T00:56:57.518Z,100839.97
2022-08-17T00:59:30.935Z,100842.81
2022-08-17T01:01:59.569Z,100849.81
2022-08-17T01:04:30.192Z,100835.97
2022-08-17T01:07:02.054Z,100839.66
2022-08-17T01:09:30.249Z,100838.47
2022-08-17T01:12:01.559Z,100831.25
2022-08-17T01:14:29.749Z,100835.63
2022-08-17T01:16:58.018Z,100830.09
2022-08-17T01:19:29.127Z,100831.81
2022-08-17T01:22:04.663Z,100824.09
2022-08-17T01:24:38.259Z,100828.13
2022-08-17T01:27:10.309Z,100822.41
2022-08-17T01:29:42.191Z,100817.09
2022-08-17T01:32:11.121Z,100811.91
2022-08-17T01:34:43.809Z,100817.28
2022-08-17T01:37:19.797Z,100815.75
2022-08-17T01:39:53.740Z,100823.78
2022-08-17T01:42:28.079Z,100817.59
2022-08-17T01:44:58.944Z,100812.59
2022-08-17T01:47:27.236Z,100816.94
2022-08-17T01:49:59.765Z,100817.75
2022-08-17T01:52:29.006Z,100817.44
2022-08-17T01:54:58.668Z,100818.28
2022-08-17T01:57:26.743Z,100807.97
2022-08-17T02:00:12.862Z,100803.44
2022-08-17T02:02:46.640Z,100805.78
2022-08-17T02:05:35.058Z,100803.28
2022-08-17T02:08:07.321Z,100805.97
2022-08-17T02:10:37.520Z,100811.84
2022-08-17T02:13:15.219Z,100803.94
2022-08-17T02:15:43.747Z,100805.63
2022-08-17T02:18:14.462Z,100796.81
2022-08-17T02:20:44.203Z,100802.97
2022-08-17T02:23:14.476Z,100811.69
2022-08-17T02:25:48.771Z,100807.69
2022-08-17T02:28:17.831Z,100804.16
2022-08-17T02:31:01.331Z,100812.00
2022-08-17T02:33:42.503Z,100801.81
2022-08-17T02:36:31.923Z,100802.34
2022-08-17T02:39:07.422Z,100798.97
2022-08-17T02:41:47.522Z,100799.50
2022-08-17T02:44:38.942Z,100797.16
2022-08-17T02:47:04.858Z,100796.63
2022-08-17T02:49:32.994Z,100798.34
2022-08-17T02:52:04.069Z,100798.34
2022-08-17T02:54:40.053Z,100805.13
2022-08-17T02:57:12.903Z,100808.47
2022-08-17T02:59:46.778Z,100803.97
2022-08-17T03:02:17.008Z,100806.28
2022-08-17T03:04:45.074Z,100804.47
2022-08-17T03:07:22.998Z,100795.13
2022-08-17T03:09:57.293Z,100800.31
2022-08-17T03:12:33.530Z,100794.13
2022-08-17T03:15:04.511Z,100788.09
2022-08-17T03:17:32.543Z,100786.25
2022-08-17T03:20:00.706Z,100777.94
2022-08-17T03:22:36.247Z,100786.59
2022-08-17T03:25:10.516Z,100785.25
2022-08-17T03:27:42.073Z,100793.28
2022-08-17T03:30:14.179Z,100794.63
2022-08-17T03:32:46.581Z,100794.28
2022-08-17T03:35:17.841Z,100788.09
2022-08-17T03:37:47.720Z,100790.94
2022-08-17T03:40:37.013Z,100788.63
2022-08-17T03:43:19.096Z,100789.97
2022-08-17T03:46:04.563Z,100796.28
2022-08-17T03:48:51.509Z,100790.25
2022-08-17T03:51:45.904Z,100794.97
2022-08-17T03:54:38.833Z,100788.28
2022-08-17T03:57:10.180Z,100789.44
2022-08-17T03:59:42.098Z,100791.13
2022-08-17T04:02:16.011Z,100786.59
2022-08-17T04:04:44.108Z,100786.25
2022-08-17T04:07:12.459Z,100791.13
2022-08-17T04:09:40.536Z,100781.94
2022-08-17T04:12:08.952Z,100786.94
2022-08-17T04:14:52.715Z,100789.97
2022-08-17T04:17:26.094Z,100785.44
2022-08-17T04:19:55.449Z,100779.94
2022-08-17T04:22:30.415Z,100787.28
2022-08-17T04:25:04.959Z,100784.94
2022-08-17T04:27:33.846Z,100782.94
2022-08-17T04:30:02.324Z,100778.75
2022-08-17T04:33:04.429Z,100779.75
2022-08-17T04:35:22.514Z,100787.97
2022-08-17T04:37:51.051Z,100793.13
2022-08-17T04:40:37.972Z,100789.47
2022-08-17T04:43:09.026Z,100788.66
2022-08-17T04:45:40.870Z,100789.47
2022-08-17T04:48:33.374Z,100799.81
2022-08-17T04:51:06.039Z,100789.13
2022-08-17T04:53:34.185Z,100788.28
2022-08-17T04:56:02.340Z,100794.97
2022-08-17T04:58:32.426Z,100793.81
2022-08-17T05:01:01.502Z,100796.31
2022-08-17T05:03:37.632Z,100792.97
2022-08-17T05:06:08.829Z,100788.28
2022-08-17T05:08:38.864Z,100797.00
2022-08-17T05:11:09.303Z,100792.97
2022-08-17T05:13:37.645Z,100790.78
2022-08-17T05:16:06.218Z,100798.97
2022-08-17T05:18:37.288Z,100798.63
2022-08-17T05:21:06.721Z,100798.31
2022-08-17T05:23:42.626Z,100800.97
2022-08-17T05:26:23.129Z,100801.28
2022-08-17T05:28:56.956Z,100804.66
2022-08-17T05:31:27.229Z,100813.00
2022-08-17T05:33:58.311Z,100818.34
2022-08-17T05:36:41.902Z,100821.66
2022-08-17T05:39:16.810Z,100819.50
2022-08-17T05:41:47.709Z,100824.69
2022-08-17T05:44:15.941Z,100823.16
2022-08-17T05:46:49.905Z,100814.34
2022-08-17T05:49:22.436Z,100816.81
2022-08-17T05:52:20.738Z,100813.97
2022-08-17T05:55:06.144Z,100818.50
2022-08-17T05:57:53.035Z,100833.00
2022-08-17T06:00:30.112Z,100849.88
2022-08-17T06:03:17.588Z,100857.72
2022-08-17T06:05:59.977Z,100873.47
2022-08-17T06:08:36.145Z,100855.03
2022-08-17T06:11:14.447Z,100844.31
2022-08-17T06:14:04.148Z,100846.00
2022-08-17T06:16:37.732Z,100853.19
2022-08-17T06:19:14.538Z,100842.66
2022-08-17T06:21:48.970Z,100852.03
2022-08-17T06:24:35.028Z,100839.66
2022-08-17T06:27:12.551Z,100843.81
2022-08-17T06:29:54.764Z,100848.00
2022-08-17T06:32:23.228Z,100842.81
2022-08-17T06:34:54.070Z,100852.34
2022-08-17T06:37:55.345Z,100840.31
2022-08-17T06:40:45.613Z,100846.81
2022-08-17T06:43:28.091Z,100851.97
2022-08-17T06:46:04.107Z,100850.09
2022-08-17T06:48:41.943Z,100851.94
2022-08-17T06:51:18.891Z,100845.41
2022-08-17T06:53:54.102Z,100851.72
2022-08-17T06:56:54.586Z,100853.59
2022-08-17T06:59:26.529Z,100855.91
2022-08-17T07:02:29.036Z,100858.75
2022-08-17T07:05:16.725Z,100858.34
2022-08-17T07:08:09.391Z,100854.50
2022-08-17T07:10:42.669Z,100849.81
2022-08-17T07:13:35.202Z,100853.09
2022-08-17T07:16:12.531Z,100855.75
2022-08-17T07:18:40.697Z,100859.13
2022-08-17T07:21:26.176Z,100853.09
2022-08-17T07:24:08.048Z,100859.13
2022-08-17T07:26:36.633Z,100863.09
2022-08-17T07:29:06.950Z,100862.53
2022-08-17T07:31:35.228Z,100872.03
2022-08-17T07:34:08.469Z,100872.69
2022-08-17T07:36:36.627Z,100872.44
2022-08-17T07:39:06.290Z,100882.09
2022-08-17T07:41:57.504Z,100885.53
2022-08-17T07:44:29.133Z,100871.97
2022-08-17T07:47:15.077Z,100875.44
2022-08-17T07:49:46.882Z,100881.72
2022-08-17T07:52:50.372Z,100886.09
2022-08-17T07:55:30.434Z,100884.09
2022-08-17T07:58:01.908Z,100885.59
2022-08-17T08:00:34.342Z,100881.72
2022-08-17T08:03:14.861Z,100878.84
2022-08-17T08:05:53.092Z,100885.16
2022-08-17T08:08:28.516Z,100883.44
2022-08-17T08:11:11.764Z,100887.81
2022-08-17T08:13:44.050Z,100897.72
2022-08-17T08:16:29.345Z,100895.59
2022-08-17T08:19:00.195Z,100896.06
2022-08-17T08:21:46.531Z,100887.63
2022-08-17T08:24:36.393Z,100889.63
2022-08-17T08:27:19.330Z,100887.31
2022-08-17T08:29:53.967Z,100884.34
2022-08-17T08:35:07.433Z,100888.69
2022-08-17T08:37:44.651Z,100891.56
2022-08-17T08:40:33.380Z,100894.69
2022-08-17T08:43:15.233Z,100898.25
2022-08-17T08:45:53.060Z,100899.13
2022-08-17T08:48:53.955Z,100906.16
2022-08-17T08:51:40.076Z,100919.69
2022-08-17T08:54:14.097Z,100915.94
2022-08-17T08:57:19.146Z,100919.31
2022-08-17T08:59:41.977Z,100930.28
2022-08-17T09:02:20.990Z,100937.84
2022-08-17T09:05:20.361Z,100932.44
2022-08-17T09:07:58.560Z,100921.84
2022-08-17T09:10:32.016Z,100914.28
2022-08-17T09:13:10.223Z,100914.53
2022-08-17T09:15:43.635Z,100913.72
2022-08-17T09:18:58.977Z,100911.84
2022-08-17T09:21:18.179Z,100907.56
2022-08-17T09:23:59.682Z,100895.06
2022-08-17T09:26:32.465Z,100897.16
2022-08-17T09:29:04.789Z,100887.63
2022-08-17T09:31:35.559Z,100886.63
2022-08-17T09:34:19.394Z,100875.88
2022-08-17T09:36:54.080Z,100875.44
2022-08-17T09:39:29.302Z,100864.91
2022-08-17T09:42:06.017Z,100875.25
2022-08-17T09:44:41.110Z,100863.19
2022-08-17T09:47:15.660Z,100867.38
2022-08-17T09:49:48.965Z,100865.06
2022-08-17T09:52:22.586Z,100863.25
2022-08-17T09:54:52.533Z,100861.78
2022-08-17T09:57:40.001Z,100856.59
2022-08-17T10:00:20.509Z,100863.47
2022-08-17T10:03:22.185Z,100871.75
2022-08-17T10:05:57.172Z,100875.06
2022-08-17T10:08:37.282Z,100871.97
2022-08-17T10:11:16.229Z,100891.91
2022-08-17T10:13:53.084Z,100886.69
2022-08-17T10:16:31.726Z,100888.97
2022-08-17T10:19:13.772Z,100892.47
2022-08-17T10:22:32.437Z,100889.41
2022-08-17T10:25:22.137Z,100897.22
2022-08-17T10:27:55.544Z,100894.78
2022-08-17T10:30:27.772Z,100904.69
2022-08-17T10:32:59.304Z,100897.19
2022-08-17T10:35:35.549Z,100906.72
2022-08-17T10:38:38.719Z,100909.84
2022-08-17T10:41:21.852Z,100920.03
2022-08-17T10:44:39.482Z,100929.56
2022-08-17T10:47:04.488Z,100943.66
2022-08-17T10:49:35.047Z,100957.94
2022-08-17T10:52:26.225Z,100961.50
2022-08-17T10:55:14.553Z,100953.38
2022-08-17T10:57:44.824Z,100957.34
2022-08-17T11:00:36.195Z,100961.84
2022-08-17T11:03:19.766Z,100952.94
2022-08-17T11:05:59.071Z,100947.75
2022-08-17T11:09:21.032Z,100953.75
2022-08-17T11:12:10.062Z,100954.97
2022-08-17T11:14:55.418Z,100952.91
2022-08-17T11:17:51.271Z,100954.91
2022-08-17T11:20:57.819Z,100954.34
2022-08-17T11:23:59.891Z,100960.75
2022-08-17T11:26:31.990Z,100973.38
2022-08-17T11:29:09.565Z,100968.09
2022-08-17T11:31:43.474Z,100965.88
2022-08-17T11:34:19.788Z,100969.88
2022-08-17T11:37:06.199Z,100976.16
2022-08-17T11:39:56.236Z,100971.09
2022-08-17T11:42:39.716Z,100966.94
2022-08-17T11:45:38.235Z,100956.81
2022-08-17T11:48:35.712Z,100961.69
2022-08-17T11:51:42.272Z,100976.91
2022-08-17T11:54:34.354Z,100982.41
2022-08-17T11:57:41.646Z,100981.09
2022-08-17T12:00:57.650Z,100992.03
2022-08-17T12:03:54.019Z,100988.81
2022-08-17T12:06:45.141Z,100981.13
2022-08-17T12:09:20.046Z,100971.50
2022-08-17T12:12:13.116Z,100962.34
2022-08-17T12:17:39.383Z,100969.28
2022-08-17T12:20:21.533Z,100966.53
2022-08-17T12:22:57.639Z,100980.13
2022-08-17T12:25:35.795Z,100983.84
2022-08-17T12:28:06.666Z,100983.47
2022-08-17T12:30:36.690Z,100987.69
2022-08-17T12:33:28.659Z,100994.72
2022-08-17T12:36:03.101Z,101003.47
2022-08-17T12:38:32.786Z,101004.78
2022-08-17T12:41:24.535Z,100994.06
2022-08-17T12:44:02.665Z,100999.91
2022-08-17T12:46:35.067Z,100992.53
2022-08-17T12:49:35.940Z,101000.41
2022-08-17T12:52:13.663Z,100998.59
2022-08-17T12:55:04.796Z,101009.16
2022-08-17T12:57:45.158Z,101009.50
2022-08-17T13:00:17.854Z,101003.47
2022-08-17T13:02:47.772Z,101005.00
2022-08-17T13:05:25.923Z,101001.84
2022-08-17T13:08:00.435Z,100999.53
2022-08-17T13:10:33.020Z,101001.16
2022-08-17T13:13:04.896Z,100997.09
2022-08-17T13:15:38.403Z,101000.78
2022-08-17T13:18:47.019Z,101006.84
2022-08-17T13:21:38.643Z,101013.56
2022-08-17T13:24:37.758Z,101006.75
2022-08-17T13:27:10.066Z,101005.53
2022-08-17T13:29:51.321Z,101007.63
2022-08-17T13:32:24.069Z,100993.09
2022-08-17T13:35:13.811Z,100992.03
2022-08-17T13:38:02.355Z,100984.31
2022-08-17T13:40:37.814Z,100983.00
2022-08-17T13:43:06.763Z,100981.22
2022-08-17T13:45:54.574Z,100971.94
2022-08-17T13:48:27.048Z,100975.09
2022-08-17T13:51:25.894Z,100964.47
2022-08-17T13:54:24.476Z,100963.53
2022-08-17T13:56:58.594Z,100962.97
2022-08-17T13:59:54.728Z,100960.97
2022-08-17T14:02:28.972Z,100957.03
2022-08-17T14:05:00.530Z,100959.28
2022-08-17T14:07:33.893Z,100950.53
2022-08-17T14:10:08.758Z,100963.66
2022-08-17T14:12:41.333Z,100959.09
2022-08-17T14:15:12.471Z,100947.44
2022-08-17T14:17:50.225Z,100951.31
2022-08-17T14:20:24.089Z,100939.84
2022-08-17T14:22:54.218Z,100939.22
2022-08-17T14:25:25.964Z,100936.06
2022-08-17T14:27:56.101Z,100934.97
2022-08-17T14:30:30.826Z,100938.59
2022-08-17T14:32:59.608Z,100943.16
2022-08-17T14:35:30.622Z,100947.28
2022-08-17T14:38:06.670Z,100934.53
2022-08-17T14:40:36.949Z,100938.78
2022-08-17T14:43:05.139Z,100938.59
2022-08-17T14:45:33.596Z,100939.91
2022-08-17T14:48:07.697Z,100952.81
2022-08-17T14:50:43.237Z,100944.00
2022-08-17T14:53:18.183Z,100945.41
2022-08-17T14:55:51.516Z,100938.75
2022-08-17T14:58:20.073Z,100933.41
2022-08-17T15:00:50.960Z,100944.13
2022-08-17T15:03:41.699Z,100933.41
2022-08-17T15:06:16.439Z,100932.81
2022-08-17T15:08:44.753Z,100935.81
2022-08-17T15:11:15.056Z,100935.56
2022-08-17T15:13:52.585Z,100928.88
2022-08-17T15:16:27.018Z,100928.53
2022-08-17T15:18:55.292Z,100936.47
2022-08-17T15:21:23.711Z,100934.97
2022-08-17T15:23:51.854Z,100936.31
2022-08-17T15:26:26.035Z,100935.94
2022-08-17T15:28:57.591Z,100938.56
2022-08-17T15:31:31.701Z,100938.03
2022-08-17T15:34:01.060Z,100932.38
2022-08-17T15:36:30.773Z,100936.84
2022-08-17T15:39:00.112Z,100936.69
2022-08-17T15:41:29.677Z,100932.31
2022-08-17T15:44:02.923Z,100936.84
2022-08-17T15:46:31.199Z,100934.53
2022-08-17T15:49:03.782Z,100936.66
2022-08-17T15:51:34.472Z,100927.75
2022-08-17T15:54:18.735Z,100930.94
2022-08-17T15:56:52.590Z,100936.84
2022-08-17T15:59:20.707Z,100935.19
2022-08-17T16:03:13.662Z,100942.31
2022-08-17T16:04:38.012Z,100933.06
2022-08-17T16:07:11.308Z,100941.97
2022-08-17T16:09:39.563Z,100942.31
2022-08-17T16:12:14.183Z,100928.03
2022-08-17T16:14:42.226Z,100933.03
2022-08-17T16:17:38.747Z,100932.31
2022-08-17T16:20:01.608Z,100936.41
2022-08-17T16:22:35.219Z,100941.78
2022-08-17T16:25:06.751Z,100946.03
2022-08-17T16:27:39.390Z,100945.75
2022-08-17T16:30:17.353Z,100948.44
2022-08-17T16:32:47.656Z,100947.31
2022-08-17T16:35:27.503Z,100942.66
2022-08-17T16:37:58.395Z,100946.19
2022-08-17T16:40:28.763Z,100946.19
2022-08-17T16:42:58.212Z,100947.16
2022-08-17T16:45:29.453Z,100946.69
2022-08-17T16:48:00.102Z,100948.66
2022-08-17T16:50:28.227Z,100956.63
2022-08-17T16:53:06.505Z,100959.91
2022-08-17T16:55:39.112Z,100951.97
2022-08-17T16:58:08.934Z,100955.69
2022-08-17T17:00:41.692Z,100944.03
2022-08-17T17:03:18.968Z,100935.31
2022-08-17T17:06:06.347Z,100942.38
2022-08-17T17:08:40.666Z,100944.88
2022-08-17T17:11:14.814Z,100947.38
2022-08-17T17:13:50.060Z,100953.19
2022-08-17T17:16:23.663Z,100957.63
2022-08-17T17:19:07.026Z,100973.75
2022-08-17T17:21:42.963Z,100969.03
2022-08-17T17:24:18.865Z,100973.81
2022-08-17T17:27:01.397Z,100970.91
2022-08-17T17:29:48.610Z,100979.25
2022-08-17T17:32:24.821Z,100972.50
2022-08-17T17:35:01.451Z,100962.53
2022-08-17T17:37:34.990Z,100972.88
2022-08-17T17:40:09.552Z,100977.13
2022-08-17T17:42:42.124Z,100976.94
2022-08-17T17:45:20.001Z,100979.63
2022-08-17T17:47:50.509Z,100986.00
2022-08-17T17:50:34.664Z,100989.13
2022-08-17T17:53:07.586Z,100983.00
2022-08-17T17:55:47.607Z,100982.88
2022-08-17T17:58:44.126Z,100982.59
2022-08-17T18:01:24.054Z,100982.44
2022-08-17T18:04:20.234Z,100982.94
2022-08-17T18:07:05.118Z,100997.06
2022-08-17T18:10:05.107Z,100999.09
2022-08-17T18:12:56.503Z,101003.63
2022-08-17T18:15:33.294Z,101013.03
2022-08-17T18:18:33.216Z,101009.09
2022-08-17T18:21:06.546Z,101004.91
2022-08-17T18:23:36.472Z,101005.84
2022-08-17T18:26:04.600Z,101008.41
2022-08-17T18:28:38.480Z,101006.25
2022-08-17T18:31:13.917Z,100998.78
2022-08-17T18:33:52.446Z,100996.50
2022-08-17T18:36:28.937Z,100996.00
2022-08-17T18:39:11.933Z,101003.56
2022-08-17T18:41:42.671Z,101001.53
2022-08-17T18:44:25.098Z,100995.34
2022-08-17T18:47:18.876Z,100992.34
2022-08-17T18:49:56.368Z,100997.06
2022-08-17T18:52:28.047Z,101002.56
2022-08-17T18:55:03.996Z,101010.13
2022-08-17T18:57:42.765Z,101012.50
2022-08-17T19:00:19.288Z,101009.47
2022-08-17T19:02:53.642Z,101020.69
2022-08-17T19:05:36.018Z,101031.59
2022-08-17T19:08:22.525Z,101028.59
2022-08-17T19:10:54.281Z,101035.47
2022-08-17T19:13:26.804Z,101035.63
2022-08-17T19:16:12.127Z,101057.03
2022-08-17T19:18:47.933Z,101058.88
2022-08-17T19:21:22.639Z,101063.41
2022-08-17T19:23:55.191Z,101059.72
2022-08-17T19:26:50.656Z,101069.19
2022-08-17T19:29:19.471Z,101070.88
2022-08-17T19:31:50.560Z,101069.69
2022-08-17T19:34:30.064Z,101070.53
2022-08-17T19:37:10.303Z,101059.50
2022-08-17T19:39:49.356Z,101068.19
2022-08-17T19:42:31.136Z,101069.34
2022-08-17T19:45:05.381Z,101069.00
2022-08-17T19:47:55.182Z,101058.97
2022-08-17T19:50:38.527Z,101058.63
2022-08-17T19:53:19.926Z,101066.81
2022-08-17T19:55:58.484Z,101079.50
2022-08-17T19:58:41.262Z,101076.50
2022-08-17T20:01:23.442Z,101065.09
2022-08-17T20:03:57.585Z,101068.38
2022-08-17T20:06:30.237Z,101074.22
2022-08-17T20:09:15.046Z,101072.00
2022-08-17T20:11:49.270Z,101074.81
2022-08-17T20:14:22.459Z,101070.16
2022-08-17T20:16:52.220Z,101070.13
2022-08-17T20:19:30.324Z,101083.97
2022-08-17T20:22:04.090Z,101091.28
2022-08-17T20:24:43.499Z,101104.09
2022-08-17T20:27:17.765Z,101097.78
2022-08-17T20:30:09.300Z,101096.09
2022-08-17T20:32:52.533Z,101087.63
2022-08-17T20:35:26.508Z,101087.28
2022-08-17T20:37:57.987Z,101080.75
2022-08-17T20:40:35.555Z,101072.72
2022-08-17T20:43:49.076Z,101069.63
2022-08-17T20:46:31.482Z,101052.13
2022-08-17T20:49:14.965Z,101056.97
2022-08-17T20:52:01.382Z,101055.63
2022-08-17T20:54:50.338Z,101063.91
2022-08-17T20:57:48.655Z,101065.94
2022-08-17T21:00:44.924Z,101067.69
2022-08-17T21:03:51.903Z,101070.69
2022-08-17T21:06:26.446Z,101070.53
2022-08-17T21:09:19.422Z,101060.53
2022-08-17T21:12:04.410Z,101060.53
2022-08-17T21:15:00.276Z,101054.34
2022-08-17T21:17:47.761Z,101047.53
2022-08-17T21:20:32.595Z,101039.47
2022-08-17T21:23:19.210Z,101048.91
2022-08-17T21:26:10.308Z,101053.41
2022-08-17T21:29:00.804Z,101058.59
2022-08-17T21:31:34.866Z,101054.56
2022-08-17T21:34:25.994Z,101053.88
2022-08-17T21:36:54.194Z,101062.56
2022-08-17T21:39:33.399Z,101063.03
2022-08-17T21:42:02.402Z,101071.75
2022-08-17T21:44:36.893Z,101074.63
2022-08-17T21:47:20.739Z,101079.81
2022-08-17T21:49:49.397Z,101084.13
2022-08-17T21:52:21.217Z,101084.28
2022-08-17T21:54:53.037Z,101084.13
2022-08-17T21:57:24.306Z,101078.03
2022-08-17T21:59:56.227Z,101086.81
2022-08-17T22:02:36.490Z,101080.88
2022-08-17T22:05:08.514Z,101088.16
2022-08-17T22:07:39.990Z,101082.16
2022-08-17T22:10:27.358Z,101093.06
2022-08-17T22:13:16.511Z,101101.22
2022-08-17T22:15:47.668Z,101101.38
2022-08-17T22:18:22.551Z,101104.56
2022-08-17T22:20:52.721Z,101097.41
2022-08-17T22:23:43.402Z,101091.22
2022-08-17T22:26:14.845Z,101092.22
2022-08-17T22:28:46.844Z,101105.25
2022-08-17T22:31:17.807Z,101102.69
2022-08-17T22:33:51.522Z,101104.66
2022-08-17T22:36:25.888Z,101104.66
2022-08-17T22:38:55.890Z,101110.00
2022-08-17T22:41:45.161Z,101115.06
2022-08-17T22:44:27.212Z,101116.41
2022-08-17T22:47:00.251Z,101115.34
2022-08-17T22:49:35.843Z,101119.84
2022-08-17T22:52:23.469Z,101121.22
2022-08-17T22:55:30.374Z,101113.06
2022-08-17T22:58:16.318Z,101111.75
2022-08-17T23:00:48.622Z,101094.44
2022-08-17T23:03:19.303Z,101093.59
2022-08-17T23:06:03.450Z,101099.28
2022-08-17T23:08:33.763Z,101111.81
2022-08-17T23:11:02.137Z,101104.19
2022-08-17T23:13:33.378Z,101106.38
2022-08-17T23:16:02.258Z,101091.38
2022-08-17T23:18:30.459Z,101097.91
2022-08-17T23:21:01.012Z,101100.88
2022-08-17T23:23:31.023Z,101103.25
2022-08-17T23:25:59.816Z,101102.56
2022-08-17T23:28:28.676Z,101098.75
2022-08-17T23:30:56.732Z,101099.72
2022-08-17T23:33:29.983Z,101104.06
2022-08-17T23:35:59.889Z,101103.25
2022-08-17T23:38:28.942Z,101100.75
2022-08-17T23:40:59.949Z,101101.03
2022-08-17T23:43:29.871Z,101105.50
2022-08-17T23:46:01.300Z,101105.00
2022-08-17T23:48:36.571Z,101108.22
2022-08-17T23:51:11.728Z,101110.88
2022-08-17T23:53:47.101Z,101113.56
2022-08-17T23:56:16.240Z,101117.38
2022-08-17T23:58:45.778Z,101128.16
